sensor_id;sensor_type;location;lat;lon;timestamp;temperature;humidity
46732;DHT22;32477;51.474;5.696;2023-04-24T00:00:01;9.90;99.90
46732;DHT22;32477;51.474;5.696;2023-04-24T00:02:28;9.80;99.90
46732;DHT22;32477;51.474;5.696;2023-04-24T00:04:54;9.80;99.90
46732;DHT22;32477;51.474;5.696;2023-04-24T00:07:19;9.80;99.90
46732;DHT22;32477;51.474;5.696;2023-04-24T00:09:48;9.80;99.90
46732;DHT22;32477;51.474;5.696;2023-04-24T00:12:14;9.80;99.90
46732;DHT22;32477;51.474;5.696;2023-04-24T00:14:39;9.80;99.90
46732;DHT22;32477;51.474;5.696;2023-04-24T00:17:05;9.80;99.90
46732;DHT22;32477;51.474;5.696;2023-04-24T00:19:31;9.80;99.90
46732;DHT22;32477;51.474;5.696;2023-04-24T00:21:57;9.80;99.90
46732;DHT22;32477;51.474;5.696;2023-04-24T00:24:22;9.70;99.90
46732;DHT22;32477;51.474;5.696;2023-04-24T00:26:48;9.70;99.90
46732;DHT22;32477;51.474;5.696;2023-04-24T00:29:14;9.70;99.90
46732;DHT22;32477;51.474;5.696;2023-04-24T00:31:48;9.60;99.90
46732;DHT22;32477;51.474;5.696;2023-04-24T00:34:14;9.70;99.90
46732;DHT22;32477;51.474;5.696;2023-04-24T00:36:40;9.70;99.90
46732;DHT22;32477;51.474;5.696;2023-04-24T00:39:06;9.70;99.90
46732;DHT22;32477;51.474;5.696;2023-04-24T00:41:37;9.70;99.90
46732;DHT22;32477;51.474;5.696;2023-04-24T00:44:03;9.70;99.90
46732;DHT22;32477;51.474;5.696;2023-04-24T00:46:28;9.70;99.90
46732;DHT22;32477;51.474;5.696;2023-04-24T00:48:56;9.70;99.90
46732;DHT22;32477;51.474;5.696;2023-04-24T00:51:21;9.70;99.90
46732;DHT22;32477;51.474;5.696;2023-04-24T00:53:49;9.70;99.90
46732;DHT22;32477;51.474;5.696;2023-04-24T00:56:16;9.60;99.90
46732;DHT22;32477;51.474;5.696;2023-04-24T00:58:43;9.70;99.90
46732;DHT22;32477;51.474;5.696;2023-04-24T01:01:09;9.60;99.90
46732;DHT22;32477;51.474;5.696;2023-04-24T01:03:35;9.50;99.90
46732;DHT22;32477;51.474;5.696;2023-04-24T01:06:05;9.50;99.90
46732;DHT22;32477;51.474;5.696;2023-04-24T01:08:30;9.50;99.90
46732;DHT22;32477;51.474;5.696;2023-04-24T01:10:57;9.40;99.90
46732;DHT22;32477;51.474;5.696;2023-04-24T01:13:23;9.40;99.90
46732;DHT22;32477;51.474;5.696;2023-04-24T01:15:49;9.40;99.90
46732;DHT22;32477;51.474;5.696;2023-04-24T01:18:15;9.40;99.90
46732;DHT22;32477;51.474;5.696;2023-04-24T01:20:42;9.40;99.90
46732;DHT22;32477;51.474;5.696;2023-04-24T01:23:10;9.40;99.90
46732;DHT22;32477;51.474;5.696;2023-04-24T01:25:36;9.40;99.90
46732;DHT22;32477;51.474;5.696;2023-04-24T01:28:03;9.40;99.90
46732;DHT22;32477;51.474;5.696;2023-04-24T01:30:30;9.30;99.90
46732;DHT22;32477;51.474;5.696;2023-04-24T01:32:55;9.30;99.90
46732;DHT22;32477;51.474;5.696;2023-04-24T01:35:21;9.30;99.90
46732;DHT22;32477;51.474;5.696;2023-04-24T01:37:47;9.30;99.90
46732;DHT22;32477;51.474;5.696;2023-04-24T01:40:13;9.30;99.90
46732;DHT22;32477;51.474;5.696;2023-04-24T01:42:41;9.30;99.90
46732;DHT22;32477;51.474;5.696;2023-04-24T01:45:11;9.30;99.90
46732;DHT22;32477;51.474;5.696;2023-04-24T01:47:36;9.30;99.90
46732;DHT22;32477;51.474;5.696;2023-04-24T01:50:04;9.30;99.90
46732;DHT22;32477;51.474;5.696;2023-04-24T01:52:30;9.30;99.90
46732;DHT22;32477;51.474;5.696;2023-04-24T01:55:00;9.30;99.90
46732;DHT22;32477;51.474;5.696;2023-04-24T01:57:27;9.30;99.90
46732;DHT22;32477;51.474;5.696;2023-04-24T01:59:53;9.30;99.90
46732;DHT22;32477;51.474;5.696;2023-04-24T02:02:18;9.30;99.90
46732;DHT22;32477;51.474;5.696;2023-04-24T02:04:46;9.30;99.90
46732;DHT22;32477;51.474;5.696;2023-04-24T02:07:12;9.30;99.90
46732;DHT22;32477;51.474;5.696;2023-04-24T02:09:37;9.40;99.90
46732;DHT22;32477;51.474;5.696;2023-04-24T02:12:03;9.40;99.90
46732;DHT22;32477;51.474;5.696;2023-04-24T02:14:29;9.30;99.90
46732;DHT22;32477;51.474;5.696;2023-04-24T02:16:54;9.30;99.90
46732;DHT22;32477;51.474;5.696;2023-04-24T02:19:20;9.30;99.90
46732;DHT22;32477;51.474;5.696;2023-04-24T02:21:46;9.30;99.90
46732;DHT22;32477;51.474;5.696;2023-04-24T02:24:11;9.30;99.90
46732;DHT22;32477;51.474;5.696;2023-04-24T02:26:37;9.30;99.90
46732;DHT22;32477;51.474;5.696;2023-04-24T02:29:02;9.30;99.90
46732;DHT22;32477;51.474;5.696;2023-04-24T02:31:28;9.30;99.90
46732;DHT22;32477;51.474;5.696;2023-04-24T02:33:54;9.30;99.90
46732;DHT22;32477;51.474;5.696;2023-04-24T02:36:19;9.30;99.90
46732;DHT22;32477;51.474;5.696;2023-04-24T02:38:51;9.30;99.90
46732;DHT22;32477;51.474;5.696;2023-04-24T02:41:17;9.40;99.90
46732;DHT22;32477;51.474;5.696;2023-04-24T02:43:43;9.40;99.90
46732;DHT22;32477;51.474;5.696;2023-04-24T02:46:08;9.40;99.90
46732;DHT22;32477;51.474;5.696;2023-04-24T02:48:34;9.30;99.90
46732;DHT22;32477;51.474;5.696;2023-04-24T02:51:00;9.40;99.90
46732;DHT22;32477;51.474;5.696;2023-04-24T02:53:26;9.40;99.90
46732;DHT22;32477;51.474;5.696;2023-04-24T02:55:51;9.40;99.90
46732;DHT22;32477;51.474;5.696;2023-04-24T02:58:17;9.40;99.90
46732;DHT22;32477;51.474;5.696;2023-04-24T03:00:45;9.40;99.90
46732;DHT22;32477;51.474;5.696;2023-04-24T03:03:11;9.50;99.90
46732;DHT22;32477;51.474;5.696;2023-04-24T03:05:37;9.40;99.90
46732;DHT22;32477;51.474;5.696;2023-04-24T03:08:03;9.40;99.90
46732;DHT22;32477;51.474;5.696;2023-04-24T03:10:28;9.40;99.90
46732;DHT22;32477;51.474;5.696;2023-04-24T03:12:54;9.40;99.90
46732;DHT22;32477;51.474;5.696;2023-04-24T03:15:20;9.50;99.90
46732;DHT22;32477;51.474;5.696;2023-04-24T03:17:46;9.50;99.90
46732;DHT22;32477;51.474;5.696;2023-04-24T03:20:11;9.40;99.90
46732;DHT22;32477;51.474;5.696;2023-04-24T03:22:37;9.50;99.90
46732;DHT22;32477;51.474;5.696;2023-04-24T03:25:03;9.50;99.90
46732;DHT22;32477;51.474;5.696;2023-04-24T03:27:29;9.50;99.90
46732;DHT22;32477;51.474;5.696;2023-04-24T03:29:56;9.50;99.90
46732;DHT22;32477;51.474;5.696;2023-04-24T03:32:22;9.50;99.90
46732;DHT22;32477;51.474;5.696;2023-04-24T03:34:48;9.50;99.90
46732;DHT22;32477;51.474;5.696;2023-04-24T03:37:15;9.50;99.90
46732;DHT22;32477;51.474;5.696;2023-04-24T03:39:42;9.50;99.90
46732;DHT22;32477;51.474;5.696;2023-04-24T03:42:07;9.40;99.90
46732;DHT22;32477;51.474;5.696;2023-04-24T03:44:34;9.30;99.90
46732;DHT22;32477;51.474;5.696;2023-04-24T03:47:06;9.30;99.90
46732;DHT22;32477;51.474;5.696;2023-04-24T03:49:31;9.30;99.90
46732;DHT22;32477;51.474;5.696;2023-04-24T03:51:57;9.40;99.90
46732;DHT22;32477;51.474;5.696;2023-04-24T03:54:23;9.40;99.90
46732;DHT22;32477;51.474;5.696;2023-04-24T03:56:48;9.40;99.90
46732;DHT22;32477;51.474;5.696;2023-04-24T03:59:14;9.30;99.90
46732;DHT22;32477;51.474;5.696;2023-04-24T04:01:40;9.30;99.90
46732;DHT22;32477;51.474;5.696;2023-04-24T04:04:06;9.40;99.90
46732;DHT22;32477;51.474;5.696;2023-04-24T04:06:33;9.40;99.90
46732;DHT22;32477;51.474;5.696;2023-04-24T04:08:59;9.40;99.90
46732;DHT22;32477;51.474;5.696;2023-04-24T04:11:25;9.40;99.90
46732;DHT22;32477;51.474;5.696;2023-04-24T04:13:51;9.30;99.90
46732;DHT22;32477;51.474;5.696;2023-04-24T04:16:17;9.40;99.90
46732;DHT22;32477;51.474;5.696;2023-04-24T04:18:45;9.30;99.90
46732;DHT22;32477;51.474;5.696;2023-04-24T04:21:11;9.30;99.90
46732;DHT22;32477;51.474;5.696;2023-04-24T04:23:37;9.20;99.90
46732;DHT22;32477;51.474;5.696;2023-04-24T04:26:03;9.10;99.90
46732;DHT22;32477;51.474;5.696;2023-04-24T04:28:30;9.00;99.90
46732;DHT22;32477;51.474;5.696;2023-04-24T04:30:57;9.00;99.90
46732;DHT22;32477;51.474;5.696;2023-04-24T04:33:24;8.90;99.90
46732;DHT22;32477;51.474;5.696;2023-04-24T04:35:50;8.90;99.90
46732;DHT22;32477;51.474;5.696;2023-04-24T04:38:22;8.90;99.90
46732;DHT22;32477;51.474;5.696;2023-04-24T04:40:57;8.90;99.90
46732;DHT22;32477;51.474;5.696;2023-04-24T04:43:24;8.90;99.90
46732;DHT22;32477;51.474;5.696;2023-04-24T04:45:50;8.90;99.90
46732;DHT22;32477;51.474;5.696;2023-04-24T04:48:17;8.80;99.90
46732;DHT22;32477;51.474;5.696;2023-04-24T04:50:43;8.80;99.90
46732;DHT22;32477;51.474;5.696;2023-04-24T04:53:11;8.80;99.90
46732;DHT22;32477;51.474;5.696;2023-04-24T04:55:37;8.80;99.90
46732;DHT22;32477;51.474;5.696;2023-04-24T04:58:03;8.80;99.90
46732;DHT22;32477;51.474;5.696;2023-04-24T05:00:29;8.80;99.90
46732;DHT22;32477;51.474;5.696;2023-04-24T05:02:59;8.70;99.90
46732;DHT22;32477;51.474;5.696;2023-04-24T05:05:25;8.70;99.90
46732;DHT22;32477;51.474;5.696;2023-04-24T05:07:50;8.70;99.90
46732;DHT22;32477;51.474;5.696;2023-04-24T05:10:16;8.70;99.90
46732;DHT22;32477;51.474;5.696;2023-04-24T05:12:42;8.70;99.90
46732;DHT22;32477;51.474;5.696;2023-04-24T05:15:08;8.70;99.90
46732;DHT22;32477;51.474;5.696;2023-04-24T05:17:34;8.70;99.90
46732;DHT22;32477;51.474;5.696;2023-04-24T05:19:59;8.70;99.90
46732;DHT22;32477;51.474;5.696;2023-04-24T05:22:26;8.70;99.90
46732;DHT22;32477;51.474;5.696;2023-04-24T05:24:51;8.70;99.90
46732;DHT22;32477;51.474;5.696;2023-04-24T05:27:17;8.80;99.90
46732;DHT22;32477;51.474;5.696;2023-04-24T05:29:43;8.80;99.90
46732;DHT22;32477;51.474;5.696;2023-04-24T05:32:09;8.80;99.90
46732;DHT22;32477;51.474;5.696;2023-04-24T05:34:34;8.90;99.90
46732;DHT22;32477;51.474;5.696;2023-04-24T05:37:00;8.90;99.90
46732;DHT22;32477;51.474;5.696;2023-04-24T05:39:26;8.90;99.90
46732;DHT22;32477;51.474;5.696;2023-04-24T05:41:51;8.90;99.90
46732;DHT22;32477;51.474;5.696;2023-04-24T05:44:17;8.90;99.90
46732;DHT22;32477;51.474;5.696;2023-04-24T05:46:43;8.80;99.90
46732;DHT22;32477;51.474;5.696;2023-04-24T05:49:09;8.80;99.90
46732;DHT22;32477;51.474;5.696;2023-04-24T05:51:34;8.80;99.90
46732;DHT22;32477;51.474;5.696;2023-04-24T05:54:00;8.80;99.90
46732;DHT22;32477;51.474;5.696;2023-04-24T05:56:27;8.80;99.90
46732;DHT22;32477;51.474;5.696;2023-04-24T05:58:52;8.70;99.90
46732;DHT22;32477;51.474;5.696;2023-04-24T06:01:18;8.80;99.90
46732;DHT22;32477;51.474;5.696;2023-04-24T06:03:45;8.70;99.90
46732;DHT22;32477;51.474;5.696;2023-04-24T06:06:10;8.70;99.90
46732;DHT22;32477;51.474;5.696;2023-04-24T06:08:36;8.70;99.90
46732;DHT22;32477;51.474;5.696;2023-04-24T06:11:02;8.60;99.90
46732;DHT22;32477;51.474;5.696;2023-04-24T06:13:28;8.50;99.90
46732;DHT22;32477;51.474;5.696;2023-04-24T06:15:53;8.60;99.90
46732;DHT22;32477;51.474;5.696;2023-04-24T06:18:19;8.50;99.90
46732;DHT22;32477;51.474;5.696;2023-04-24T06:20:46;8.50;99.90
46732;DHT22;32477;51.474;5.696;2023-04-24T06:23:12;8.50;99.90
46732;DHT22;32477;51.474;5.696;2023-04-24T06:25:37;8.50;99.90
46732;DHT22;32477;51.474;5.696;2023-04-24T06:28:03;8.50;99.90
46732;DHT22;32477;51.474;5.696;2023-04-24T06:30:29;8.50;99.90
46732;DHT22;32477;51.474;5.696;2023-04-24T06:32:55;8.50;99.90
46732;DHT22;32477;51.474;5.696;2023-04-24T06:35:20;8.50;99.90
46732;DHT22;32477;51.474;5.696;2023-04-24T06:37:46;8.50;99.90
46732;DHT22;32477;51.474;5.696;2023-04-24T06:40:12;8.50;99.90
46732;DHT22;32477;51.474;5.696;2023-04-24T06:42:38;8.60;99.90
46732;DHT22;32477;51.474;5.696;2023-04-24T06:45:04;8.60;99.90
46732;DHT22;32477;51.474;5.696;2023-04-24T06:47:30;8.70;99.90
46732;DHT22;32477;51.474;5.696;2023-04-24T06:49:56;8.70;99.90
46732;DHT22;32477;51.474;5.696;2023-04-24T06:52:22;8.70;99.90
46732;DHT22;32477;51.474;5.696;2023-04-24T06:54:48;8.80;99.90
46732;DHT22;32477;51.474;5.696;2023-04-24T06:57:13;8.80;99.90
46732;DHT22;32477;51.474;5.696;2023-04-24T06:59:41;8.80;99.90
46732;DHT22;32477;51.474;5.696;2023-04-24T07:02:07;8.80;99.90
46732;DHT22;32477;51.474;5.696;2023-04-24T07:04:32;8.80;99.90
46732;DHT22;32477;51.474;5.696;2023-04-24T07:06:58;8.90;99.90
46732;DHT22;32477;51.474;5.696;2023-04-24T07:09:25;8.90;99.90
46732;DHT22;32477;51.474;5.696;2023-04-24T07:11:51;8.90;99.90
46732;DHT22;32477;51.474;5.696;2023-04-24T07:14:17;8.90;99.90
46732;DHT22;32477;51.474;5.696;2023-04-24T07:16:43;8.80;99.90
46732;DHT22;32477;51.474;5.696;2023-04-24T07:19:09;8.80;99.90
46732;DHT22;32477;51.474;5.696;2023-04-24T07:21:35;8.80;99.90
46732;DHT22;32477;51.474;5.696;2023-04-24T07:24:00;8.80;99.90
46732;DHT22;32477;51.474;5.696;2023-04-24T07:26:29;8.80;99.90
46732;DHT22;32477;51.474;5.696;2023-04-24T07:28:55;8.70;99.90
46732;DHT22;32477;51.474;5.696;2023-04-24T07:31:21;8.70;99.90
46732;DHT22;32477;51.474;5.696;2023-04-24T07:33:47;8.80;99.90
46732;DHT22;32477;51.474;5.696;2023-04-24T07:36:13;8.80;99.90
46732;DHT22;32477;51.474;5.696;2023-04-24T07:38:42;8.70;99.90
46732;DHT22;32477;51.474;5.696;2023-04-24T07:41:08;8.60;99.90
46732;DHT22;32477;51.474;5.696;2023-04-24T07:43:34;8.60;99.90
46732;DHT22;32477;51.474;5.696;2023-04-24T07:46:00;8.60;99.90
46732;DHT22;32477;51.474;5.696;2023-04-24T07:48:26;8.50;99.90
46732;DHT22;32477;51.474;5.696;2023-04-24T07:50:52;8.60;99.90
46732;DHT22;32477;51.474;5.696;2023-04-24T07:53:18;8.60;99.90
46732;DHT22;32477;51.474;5.696;2023-04-24T07:55:44;8.50;99.90
46732;DHT22;32477;51.474;5.696;2023-04-24T07:58:09;8.50;99.90
46732;DHT22;32477;51.474;5.696;2023-04-24T08:00:35;8.50;99.90
46732;DHT22;32477;51.474;5.696;2023-04-24T08:03:01;8.50;99.90
46732;DHT22;32477;51.474;5.696;2023-04-24T08:05:26;8.50;99.90
46732;DHT22;32477;51.474;5.696;2023-04-24T08:07:54;8.60;99.90
46732;DHT22;32477;51.474;5.696;2023-04-24T08:10:23;8.50;99.90
46732;DHT22;32477;51.474;5.696;2023-04-24T08:12:49;8.50;99.90
46732;DHT22;32477;51.474;5.696;2023-04-24T08:15:15;8.50;99.90
46732;DHT22;32477;51.474;5.696;2023-04-24T08:17:40;8.50;99.90
46732;DHT22;32477;51.474;5.696;2023-04-24T08:20:08;8.50;99.90
46732;DHT22;32477;51.474;5.696;2023-04-24T08:22:39;8.50;99.90
46732;DHT22;32477;51.474;5.696;2023-04-24T08:25:06;8.60;99.90
46732;DHT22;32477;51.474;5.696;2023-04-24T08:27:31;8.60;99.90
46732;DHT22;32477;51.474;5.696;2023-04-24T08:29:58;8.60;99.90
46732;DHT22;32477;51.474;5.696;2023-04-24T08:32:25;8.70;99.90
46732;DHT22;32477;51.474;5.696;2023-04-24T08:34:54;8.70;99.90
46732;DHT22;32477;51.474;5.696;2023-04-24T08:37:22;8.80;99.90
46732;DHT22;32477;51.474;5.696;2023-04-24T08:39:48;8.80;99.90
46732;DHT22;32477;51.474;5.696;2023-04-24T08:42:14;8.80;99.90
46732;DHT22;32477;51.474;5.696;2023-04-24T08:44:41;8.80;99.90
46732;DHT22;32477;51.474;5.696;2023-04-24T08:47:07;8.80;99.90
46732;DHT22;32477;51.474;5.696;2023-04-24T08:49:33;8.90;99.90
46732;DHT22;32477;51.474;5.696;2023-04-24T08:52:01;9.00;99.90
46732;DHT22;32477;51.474;5.696;2023-04-24T08:54:28;8.90;99.90
46732;DHT22;32477;51.474;5.696;2023-04-24T08:56:59;9.00;99.90
46732;DHT22;32477;51.474;5.696;2023-04-24T08:59:27;9.00;99.90
46732;DHT22;32477;51.474;5.696;2023-04-24T09:01:55;9.00;99.90
46732;DHT22;32477;51.474;5.696;2023-04-24T09:04:22;9.00;99.90
46732;DHT22;32477;51.474;5.696;2023-04-24T09:06:58;9.10;99.90
46732;DHT22;32477;51.474;5.696;2023-04-24T09:09:25;9.20;99.90
46732;DHT22;32477;51.474;5.696;2023-04-24T09:11:51;9.10;99.90
46732;DHT22;32477;51.474;5.696;2023-04-24T09:14:19;9.20;99.90
46732;DHT22;32477;51.474;5.696;2023-04-24T09:16:46;9.40;99.90
46732;DHT22;32477;51.474;5.696;2023-04-24T09:19:12;9.60;99.90
46732;DHT22;32477;51.474;5.696;2023-04-24T09:21:38;9.90;99.90
46732;DHT22;32477;51.474;5.696;2023-04-24T09:24:07;10.10;99.90
46732;DHT22;32477;51.474;5.696;2023-04-24T09:26:35;10.10;99.90
46732;DHT22;32477;51.474;5.696;2023-04-24T09:29:02;9.90;99.90
46732;DHT22;32477;51.474;5.696;2023-04-24T09:31:29;9.70;99.90
46732;DHT22;32477;51.474;5.696;2023-04-24T09:34:00;9.50;99.90
46732;DHT22;32477;51.474;5.696;2023-04-24T09:36:34;9.40;99.90
46732;DHT22;32477;51.474;5.696;2023-04-24T09:39:03;9.30;99.90
46732;DHT22;32477;51.474;5.696;2023-04-24T09:41:32;9.30;99.90
46732;DHT22;32477;51.474;5.696;2023-04-24T09:44:10;9.40;99.90
46732;DHT22;32477;51.474;5.696;2023-04-24T09:46:36;9.50;99.90
46732;DHT22;32477;51.474;5.696;2023-04-24T09:49:10;9.80;99.90
46732;DHT22;32477;51.474;5.696;2023-04-24T09:51:37;10.20;99.90
46732;DHT22;32477;51.474;5.696;2023-04-24T09:54:23;10.40;99.90
46732;DHT22;32477;51.474;5.696;2023-04-24T09:56:51;10.40;99.90
46732;DHT22;32477;51.474;5.696;2023-04-24T09:59:18;10.20;99.90
46732;DHT22;32477;51.474;5.696;2023-04-24T10:01:44;9.70;99.90
46732;DHT22;32477;51.474;5.696;2023-04-24T10:04:22;9.50;99.90
46732;DHT22;32477;51.474;5.696;2023-04-24T10:06:50;9.40;99.90
46732;DHT22;32477;51.474;5.696;2023-04-24T10:09:17;9.30;99.90
46732;DHT22;32477;51.474;5.696;2023-04-24T10:11:45;9.40;99.90
46732;DHT22;32477;51.474;5.696;2023-04-24T10:14:15;9.50;99.90
46732;DHT22;32477;51.474;5.696;2023-04-24T10:16:42;9.60;99.90
46732;DHT22;32477;51.474;5.696;2023-04-24T10:19:09;9.90;99.90
46732;DHT22;32477;51.474;5.696;2023-04-24T10:21:35;10.40;99.90
46732;DHT22;32477;51.474;5.696;2023-04-24T10:24:05;10.80;99.90
46732;DHT22;32477;51.474;5.696;2023-04-24T10:26:33;11.20;99.90
46732;DHT22;32477;51.474;5.696;2023-04-24T10:28:59;11.60;99.90
46732;DHT22;32477;51.474;5.696;2023-04-24T10:31:26;12.10;99.90
46732;DHT22;32477;51.474;5.696;2023-04-24T10:33:53;11.90;99.90
46732;DHT22;32477;51.474;5.696;2023-04-24T10:36:22;12.00;99.90
46732;DHT22;32477;51.474;5.696;2023-04-24T10:38:49;12.30;99.90
46732;DHT22;32477;51.474;5.696;2023-04-24T10:41:18;11.90;99.90
46732;DHT22;32477;51.474;5.696;2023-04-24T10:44:04;11.40;99.90
46732;DHT22;32477;51.474;5.696;2023-04-24T10:46:30;11.30;99.90
46732;DHT22;32477;51.474;5.696;2023-04-24T10:48:56;10.90;99.90
46732;DHT22;32477;51.474;5.696;2023-04-24T10:51:24;10.70;99.90
46732;DHT22;32477;51.474;5.696;2023-04-24T10:53:50;10.50;99.90
46732;DHT22;32477;51.474;5.696;2023-04-24T10:56:17;10.40;99.90
46732;DHT22;32477;51.474;5.696;2023-04-24T10:58:51;10.20;99.90
46732;DHT22;32477;51.474;5.696;2023-04-24T11:01:31;10.30;99.90
46732;DHT22;32477;51.474;5.696;2023-04-24T11:03:59;10.50;99.90
46732;DHT22;32477;51.474;5.696;2023-04-24T11:06:38;10.80;99.90
46732;DHT22;32477;51.474;5.696;2023-04-24T11:09:10;10.80;99.90
46732;DHT22;32477;51.474;5.696;2023-04-24T11:11:38;11.10;99.90
46732;DHT22;32477;51.474;5.696;2023-04-24T11:14:10;11.40;99.90
46732;DHT22;32477;51.474;5.696;2023-04-24T11:16:42;11.40;99.90
46732;DHT22;32477;51.474;5.696;2023-04-24T11:19:27;11.30;99.90
46732;DHT22;32477;51.474;5.696;2023-04-24T11:26:55;11.50;99.90
46732;DHT22;32477;51.474;5.696;2023-04-24T11:29:22;11.20;99.90
46732;DHT22;32477;51.474;5.696;2023-04-24T11:31:48;11.10;99.90
46732;DHT22;32477;51.474;5.696;2023-04-24T11:34:17;11.10;99.90
46732;DHT22;32477;51.474;5.696;2023-04-24T11:36:45;11.00;99.90
46732;DHT22;32477;51.474;5.696;2023-04-24T11:39:11;10.70;99.90
46732;DHT22;32477;51.474;5.696;2023-04-24T11:41:37;10.30;99.90
46732;DHT22;32477;51.474;5.696;2023-04-24T11:44:05;10.00;99.90
46732;DHT22;32477;51.474;5.696;2023-04-24T11:46:31;9.80;99.90
46732;DHT22;32477;51.474;5.696;2023-04-24T11:48:58;9.60;99.90
46732;DHT22;32477;51.474;5.696;2023-04-24T11:51:26;9.40;99.90
46732;DHT22;32477;51.474;5.696;2023-04-24T11:53:53;9.40;99.90
46732;DHT22;32477;51.474;5.696;2023-04-24T11:56:21;9.40;99.90
46732;DHT22;32477;51.474;5.696;2023-04-24T11:58:48;9.30;99.90
46732;DHT22;32477;51.474;5.696;2023-04-24T12:01:13;9.40;99.90
46732;DHT22;32477;51.474;5.696;2023-04-24T12:03:39;9.60;99.90
46732;DHT22;32477;51.474;5.696;2023-04-24T12:06:10;10.00;99.90
46732;DHT22;32477;51.474;5.696;2023-04-24T12:08:37;10.40;99.90
46732;DHT22;32477;51.474;5.696;2023-04-24T12:11:04;10.60;99.90
46732;DHT22;32477;51.474;5.696;2023-04-24T12:13:32;10.70;99.90
46732;DHT22;32477;51.474;5.696;2023-04-24T12:15:58;10.70;99.90
46732;DHT22;32477;51.474;5.696;2023-04-24T12:18:24;10.80;99.90
46732;DHT22;32477;51.474;5.696;2023-04-24T12:20:50;10.90;99.90
46732;DHT22;32477;51.474;5.696;2023-04-24T12:23:16;11.00;99.90
46732;DHT22;32477;51.474;5.696;2023-04-24T12:25:42;10.90;99.90
46732;DHT22;32477;51.474;5.696;2023-04-24T12:28:10;10.70;99.90
46732;DHT22;32477;51.474;5.696;2023-04-24T12:30:47;10.60;99.90
46732;DHT22;32477;51.474;5.696;2023-04-24T12:33:20;10.60;99.90
46732;DHT22;32477;51.474;5.696;2023-04-24T12:35:47;10.70;99.90
46732;DHT22;32477;51.474;5.696;2023-04-24T12:38:14;10.90;99.90
46732;DHT22;32477;51.474;5.696;2023-04-24T12:40:43;11.30;99.90
46732;DHT22;32477;51.474;5.696;2023-04-24T12:43:17;11.80;99.90
46732;DHT22;32477;51.474;5.696;2023-04-24T12:45:43;12.10;99.90
46732;DHT22;32477;51.474;5.696;2023-04-24T12:48:09;12.10;99.90
46732;DHT22;32477;51.474;5.696;2023-04-24T12:50:35;11.90;99.90
46732;DHT22;32477;51.474;5.696;2023-04-24T12:53:01;11.90;99.90
46732;DHT22;32477;51.474;5.696;2023-04-24T12:55:26;12.00;99.90
46732;DHT22;32477;51.474;5.696;2023-04-24T12:57:52;12.30;99.90
46732;DHT22;32477;51.474;5.696;2023-04-24T13:00:20;12.30;99.90
46732;DHT22;32477;51.474;5.696;2023-04-24T13:02:46;12.60;99.90
46732;DHT22;32477;51.474;5.696;2023-04-24T13:05:12;13.00;99.90
46732;DHT22;32477;51.474;5.696;2023-04-24T13:07:39;13.20;99.90
46732;DHT22;32477;51.474;5.696;2023-04-24T13:10:05;13.10;99.90
46732;DHT22;32477;51.474;5.696;2023-04-24T13:12:31;13.30;99.90
46732;DHT22;32477;51.474;5.696;2023-04-24T13:14:58;13.20;99.90
46732;DHT22;32477;51.474;5.696;2023-04-24T13:17:24;13.20;99.90
46732;DHT22;32477;51.474;5.696;2023-04-24T13:19:50;12.90;99.90
46732;DHT22;32477;51.474;5.696;2023-04-24T13:22:17;12.70;99.90
46732;DHT22;32477;51.474;5.696;2023-04-24T13:24:44;12.30;99.90
46732;DHT22;32477;51.474;5.696;2023-04-24T13:27:10;12.00;99.90
46732;DHT22;32477;51.474;5.696;2023-04-24T13:29:36;11.80;99.90
46732;DHT22;32477;51.474;5.696;2023-04-24T13:32:02;11.60;99.90
46732;DHT22;32477;51.474;5.696;2023-04-24T13:34:28;11.40;99.90
46732;DHT22;32477;51.474;5.696;2023-04-24T13:36:55;11.20;99.90
46732;DHT22;32477;51.474;5.696;2023-04-24T13:39:22;11.10;99.90
46732;DHT22;32477;51.474;5.696;2023-04-24T13:41:48;11.00;99.90
46732;DHT22;32477;51.474;5.696;2023-04-24T13:44:15;11.00;99.90
46732;DHT22;32477;51.474;5.696;2023-04-24T13:46:42;11.10;99.90
46732;DHT22;32477;51.474;5.696;2023-04-24T13:49:10;11.10;99.90
46732;DHT22;32477;51.474;5.696;2023-04-24T13:51:35;11.00;99.90
46732;DHT22;32477;51.474;5.696;2023-04-24T13:54:01;10.80;99.90
46732;DHT22;32477;51.474;5.696;2023-04-24T13:56:27;10.50;99.90
46732;DHT22;32477;51.474;5.696;2023-04-24T13:58:53;10.60;99.90
46732;DHT22;32477;51.474;5.696;2023-04-24T14:01:20;10.60;99.90
46732;DHT22;32477;51.474;5.696;2023-04-24T14:03:49;10.70;99.90
46732;DHT22;32477;51.474;5.696;2023-04-24T14:06:15;11.00;99.90
46732;DHT22;32477;51.474;5.696;2023-04-24T14:08:41;11.60;99.90
46732;DHT22;32477;51.474;5.696;2023-04-24T14:11:07;12.10;99.90
46732;DHT22;32477;51.474;5.696;2023-04-24T14:13:32;12.40;99.90
46732;DHT22;32477;51.474;5.696;2023-04-24T14:15:58;12.60;99.90
46732;DHT22;32477;51.474;5.696;2023-04-24T14:18:24;12.50;99.90
46732;DHT22;32477;51.474;5.696;2023-04-24T14:20:49;12.70;99.90
46732;DHT22;32477;51.474;5.696;2023-04-24T14:23:15;12.40;99.90
46732;DHT22;32477;51.474;5.696;2023-04-24T14:25:41;12.30;99.90
46732;DHT22;32477;51.474;5.696;2023-04-24T14:28:07;12.50;99.90
46732;DHT22;32477;51.474;5.696;2023-04-24T14:30:32;12.50;99.90
46732;DHT22;32477;51.474;5.696;2023-04-24T14:32:58;12.30;99.90
46732;DHT22;32477;51.474;5.696;2023-04-24T14:35:24;12.20;99.90
46732;DHT22;32477;51.474;5.696;2023-04-24T14:37:49;12.00;99.90
46732;DHT22;32477;51.474;5.696;2023-04-24T14:40:15;11.70;99.90
46732;DHT22;32477;51.474;5.696;2023-04-24T14:42:41;11.20;99.90
46732;DHT22;32477;51.474;5.696;2023-04-24T14:45:07;10.80;99.90
46732;DHT22;32477;51.474;5.696;2023-04-24T14:47:33;10.60;99.90
46732;DHT22;32477;51.474;5.696;2023-04-24T14:49:59;10.80;99.90
46732;DHT22;32477;51.474;5.696;2023-04-24T14:52:25;10.90;99.90
46732;DHT22;32477;51.474;5.696;2023-04-24T14:54:50;11.10;99.90
46732;DHT22;32477;51.474;5.696;2023-04-24T14:57:16;11.40;99.90
46732;DHT22;32477;51.474;5.696;2023-04-24T14:59:42;11.50;99.90
46732;DHT22;32477;51.474;5.696;2023-04-24T15:02:07;11.80;99.90
46732;DHT22;32477;51.474;5.696;2023-04-24T15:04:33;12.00;99.90
46732;DHT22;32477;51.474;5.696;2023-04-24T15:06:59;12.10;99.90
46732;DHT22;32477;51.474;5.696;2023-04-24T15:09:24;12.10;99.90
46732;DHT22;32477;51.474;5.696;2023-04-24T15:11:51;12.00;99.90
46732;DHT22;32477;51.474;5.696;2023-04-24T15:14:17;11.90;99.90
46732;DHT22;32477;51.474;5.696;2023-04-24T15:16:43;11.70;99.90
46732;DHT22;32477;51.474;5.696;2023-04-24T15:19:09;11.80;99.90
46732;DHT22;32477;51.474;5.696;2023-04-24T15:21:36;11.70;99.90
46732;DHT22;32477;51.474;5.696;2023-04-24T15:24:02;11.70;99.90
46732;DHT22;32477;51.474;5.696;2023-04-24T15:26:28;11.70;99.90
46732;DHT22;32477;51.474;5.696;2023-04-24T15:28:53;11.70;99.90
46732;DHT22;32477;51.474;5.696;2023-04-24T15:31:19;11.70;99.90
46732;DHT22;32477;51.474;5.696;2023-04-24T15:33:45;11.70;99.90
46732;DHT22;32477;51.474;5.696;2023-04-24T15:36:11;11.90;99.90
46732;DHT22;32477;51.474;5.696;2023-04-24T15:38:37;11.90;99.90
46732;DHT22;32477;51.474;5.696;2023-04-24T15:41:03;12.00;99.90